Time;durP1;ratioP1;P1;durP2;ratioP2;P2;SDS_P1;SDS_P2;PMS_P1;PMS_P2;Temp;Humidity;BMP_temperature;BMP_pressure;BME280_temperature;BME280_humidity;BME280_pressure;Samples;Min_cycle;Max_cycle;Signal;HPM_P1;HPM_P2
2022/04/07 00:00:01;;;;;;;14.07;7.95;;;;;;;10.06;63.73;98386.16;4443058;32;34712;-72
2022/04/07 00:02:49;;;;;;;18.20;8.23;;;;;;;9.59;65.61;98386.44;4443603;32;35021;-72
2022/04/07 00:05:35;;;;;;;14.07;8.35;;;;;;;9.76;65.24;98384.69;4446373;32;34207;-72
2022/04/07 00:08:21;;;;;;;14.30;8.35;;;;;;;9.89;64.60;98376.19;4444013;32;35209;-72
2022/04/07 00:11:08;;;;;;;14.95;8.13;;;;;;;9.23;67.37;98376.13;4442124;32;34725;-72
2022/04/07 00:13:54;;;;;;;14.07;8.43;;;;;;;9.18;68.48;98377.09;4441487;32;35135;-72
2022/04/07 00:16:40;;;;;;;16.50;7.97;;;;;;;9.43;67.65;98367.09;4440269;32;34208;-72
2022/04/07 00:19:27;;;;;;;16.15;8.45;;;;;;;9.33;66.98;98359.31;4443943;32;35154;-72
2022/04/07 00:22:13;;;;;;;13.18;8.05;;;;;;;9.58;65.96;98359.44;4443784;32;33365;-72
2022/04/07 00:25:00;;;;;;;14.90;7.93;;;;;;;9.84;65.09;98359.97;4443404;32;35024;-72
2022/04/07 00:27:46;;;;;;;14.93;7.95;;;;;;;9.67;65.52;98352.72;4441596;32;35371;-72
2022/04/07 00:30:32;;;;;;;14.32;7.53;;;;;;;9.50;66.11;98350.16;4452057;32;34304;-72
2022/04/07 00:33:19;;;;;;;12.32;6.32;;;;;;;9.65;65.70;98346.03;4465933;32;34682;-72
2022/04/07 00:36:05;;;;;;;15.18;6.70;;;;;;;9.72;65.55;98345.47;4464540;32;34501;-72
2022/04/07 00:38:52;;;;;;;11.95;6.40;;;;;;;9.65;65.45;98338.63;4465362;32;35488;-72
2022/04/07 00:41:39;;;;;;;10.82;6.37;;;;;;;9.59;65.27;98336.41;4466414;32;34108;-72
2022/04/07 00:44:27;;;;;;;13.27;6.30;;;;;;;9.58;64.86;98329.34;4464689;32;34209;-73
2022/04/07 00:47:14;;;;;;;9.82;6.00;;;;;;;9.57;64.41;98323.09;4466375;32;35022;-72
2022/04/07 00:50:00;;;;;;;13.50;6.47;;;;;;;9.54;63.94;98323.75;4464928;32;34318;-72
2022/04/07 00:52:50;;;;;;;10.55;6.47;;;;;;;9.27;64.72;98319.63;4465330;32;34093;-72
2022/04/07 00:55:37;;;;;;;14.13;8.93;;;;;;;9.58;64.15;98321.16;4463904;32;34544;-72
2022/04/07 00:58:23;;;;;;;17.67;8.20;;;;;;;9.54;64.41;98314.75;4453455;32;35037;-72
2022/04/07 01:01:10;;;;;;;11.68;6.90;;;;;;;9.37;65.28;98312.97;4463986;32;33499;-72
2022/04/07 01:03:57;;;;;;;11.02;6.30;;;;;;;9.53;64.56;98310.41;4464535;32;34115;-72
2022/04/07 01:06:47;;;;;;;13.18;6.70;;;;;;;9.46;64.26;98306.28;4466509;32;35687;-72
2022/04/07 01:09:33;;;;;;;13.27;5.72;;;;;;;9.44;64.42;98314.00;4464999;32;36011;-72
2022/04/07 01:12:20;;;;;;;9.27;5.12;;;;;;;9.38;63.77;98309.91;4464747;32;33481;-72
2022/04/07 01:15:07;;;;;;;9.52;5.00;;;;;;;9.28;63.81;98304.84;4464645;32;35013;-72
2022/04/07 01:17:55;;;;;;;10.07;5.00;;;;;;;9.40;62.95;98307.63;4464831;32;34615;-72
2022/04/07 01:20:41;;;;;;;9.55;4.87;;;;;;;9.27;62.87;98303.25;4464899;32;36089;-73
2022/04/07 01:23:33;;;;;;;7.28;4.07;;;;;;;9.53;62.55;98300.25;4463260;32;35418;-72
2022/04/07 01:26:20;;;;;;;10.02;4.87;;;;;;;9.65;61.20;98300.31;4463881;32;33636;-72
2022/04/07 01:29:14;;;;;;;9.27;4.05;;;;;;;9.55;62.01;98287.06;4454093;32;34607;-72
2022/04/07 01:32:08;;;;;;;10.48;5.40;;;;;;;8.18;65.72;98290.44;4449340;32;34850;-72
2022/04/07 01:34:55;;;;;;;12.63;5.72;;;;;;;9.05;64.25;98284.44;4449069;32;34115;-72
2022/04/07 01:37:43;;;;;;;13.85;5.90;;;;;;;9.06;65.30;98280.59;4449923;32;35107;-72
2022/04/07 01:40:33;;;;;;;8.10;3.85;;;;;;;9.03;65.37;98275.81;4448249;32;34231;-72
2022/04/07 01:43:19;;;;;;;9.70;4.62;;;;;;;9.38;63.17;98270.84;4445369;32;35012;-72
2022/04/07 01:46:07;;;;;;;10.15;4.55;;;;;;;9.43;61.99;98273.38;4449148;32;34673;-72
2022/04/07 01:48:54;;;;;;;8.13;4.12;;;;;;;9.31;62.36;98276.06;4448308;32;34975;-72
2022/04/07 01:51:42;;;;;;;6.60;3.62;;;;;;;9.40;62.25;98272.09;4449001;32;34598;-72
2022/04/07 01:54:29;;;;;;;8.35;3.87;;;;;;;9.55;61.18;98275.34;4449766;32;34952;-72
2022/04/07 01:57:16;;;;;;;7.55;3.85;;;;;;;9.59;61.01;98265.31;4449742;32;34475;-72
2022/04/07 02:00:05;;;;;;;6.90;3.40;;;;;;;9.34;61.86;98262.50;4448705;32;34112;-72
2022/04/07 02:02:57;;;;;;;9.98;3.75;;;;;;;9.33;61.88;98255.44;4448745;32;34682;-72
2022/04/07 02:05:43;;;;;;;6.22;3.45;;;;;;;9.38;61.63;98243.50;4448830;32;35061;-72
2022/04/07 02:08:29;;;;;;;8.63;4.15;;;;;;;9.76;60.53;98239.72;4449147;32;35064;-72
2022/04/07 02:11:16;;;;;;;7.60;4.22;;;;;;;9.88;61.17;98243.28;4448095;32;34558;-72
2022/04/07 02:14:03;;;;;;;10.23;4.30;;;;;;;9.57;61.81;98230.09;4447410;32;34635;-72
2022/04/07 02:16:49;;;;;;;9.52;4.30;;;;;;;9.33;62.55;98230.81;4448709;32;35545;-72
2022/04/07 02:19:35;;;;;;;7.07;4.03;;;;;;;9.60;61.81;98225.91;4450159;32;34575;-72
2022/04/07 02:22:22;;;;;;;10.57;4.65;;;;;;;9.40;62.41;98222.09;4448107;32;35093;-72
2022/04/07 02:25:09;;;;;;;10.38;4.28;;;;;;;9.11;63.93;98207.44;4447709;32;34567;-72
2022/04/07 02:27:55;;;;;;;8.57;4.28;;;;;;;9.08;64.74;98196.34;4437898;32;35973;-72
2022/04/07 02:30:42;;;;;;;7.60;4.28;;;;;;;9.36;63.83;98186.44;4458994;32;34626;-72
2022/04/07 02:33:28;;;;;;;5.95;3.50;;;;;;;9.55;63.20;98190.56;4467739;32;33046;-73
2022/04/07 02:36:17;;;;;;;7.00;3.45;;;;;;;9.59;62.84;98194.22;4472077;32;35086;-72
2022/04/07 02:39:03;;;;;;;8.98;3.80;;;;;;;8.98;64.47;98190.19;4471819;32;34954;-72
2022/04/07 02:41:51;;;;;;;7.68;4.00;;;;;;;9.61;62.08;98183.72;4474886;32;34597;-72
2022/04/07 02:44:37;;;;;;;8.10;4.47;;;;;;;9.85;60.95;98174.78;4475238;32;35092;-72
2022/04/07 02:47:35;;;;;;;8.48;4.10;;;;;;;9.72;61.49;98164.94;4465469;32;34562;-72
2022/04/07 02:50:21;;;;;;;9.20;4.28;;;;;;;9.81;61.20;98162.91;4477230;32;35036;-72
2022/04/07 02:53:07;;;;;;;8.23;4.50;;;;;;;9.40;62.46;98154.53;4470541;32;34963;-72
2022/04/07 02:55:53;;;;;;;8.23;4.20;;;;;;;9.15;63.76;98147.44;4471385;32;34101;-72
2022/04/07 02:58:40;;;;;;;11.00;4.75;;;;;;;9.16;63.64;98149.84;4476480;32;34718;-72
2022/04/07 03:01:25;;;;;;;12.30;5.05;;;;;;;8.10;68.11;98159.19;4472702;32;34639;-72
2022/04/07 03:04:12;;;;;;;10.02;4.43;;;;;;;7.47;72.92;98141.87;4473168;32;35541;-72
2022/04/07 03:06:58;;;;;;;9.27;4.50;;;;;;;8.18;70.02;98130.25;4472995;32;34159;-72
2022/04/07 03:09:45;;;;;;;7.78;4.30;;;;;;;8.96;66.37;98128.81;4477443;32;34673;-72
2022/04/07 03:12:31;;;;;;;11.70;5.15;;;;;;;9.04;65.07;98130.66;4465324;32;35001;-72
2022/04/07 03:15:18;;;;;;;9.38;4.93;;;;;;;6.54;77.13;98143.34;4454386;32;34614;-72
2022/04/07 03:18:04;;;;;;;9.05;4.72;;;;;;;6.89;80.06;98146.06;4468581;32;33781;-72
2022/04/07 03:20:51;;;;;;;9.65;5.05;;;;;;;6.87;79.46;98134.69;4473319;32;34653;-72
2022/04/07 03:23:37;;;;;;;8.75;4.70;;;;;;;6.45;80.40;98146.06;4472079;32;34860;-72
2022/04/07 03:26:24;;;;;;;9.98;4.50;;;;;;;6.06;83.07;98149.72;4476406;32;35492;-72
2022/04/07 03:29:10;;;;;;;9.15;5.07;;;;;;;6.16;82.81;98154.84;4455916;32;33886;-72
2022/04/07 03:31:56;;;;;;;8.88;4.35;;;;;;;6.28;82.96;98148.78;4474726;32;33416;-72
2022/04/07 03:34:43;;;;;;;8.30;4.00;;;;;;;7.28;77.14;98139.53;4471156;32;35078;-72
2022/04/07 03:37:29;;;;;;;11.10;4.47;;;;;;;7.63;73.76;98129.31;4468683;32;34864;-72
2022/04/07 03:40:15;;;;;;;7.95;4.37;;;;;;;8.22;70.81;98124.94;4469243;32;34114;-72
2022/04/07 03:43:02;;;;;;;7.47;3.87;;;;;;;8.26;70.03;98112.22;4473548;32;34712;-72
2022/04/07 03:45:49;;;;;;;9.25;4.05;;;;;;;8.30;68.79;98099.50;4466765;32;34923;-72
2022/04/07 03:48:35;;;;;;;8.13;3.75;;;;;;;7.88;71.50;98110.37;4463265;32;34192;-72
2022/04/07 03:51:22;;;;;;;9.45;4.32;;;;;;;8.26;69.47;98112.22;4464756;32;35080;-72
2022/04/07 03:54:08;;;;;;;10.30;4.43;;;;;;;8.58;68.51;98107.97;4474456;32;35588;-72
2022/04/07 03:56:54;;;;;;;8.40;3.65;;;;;;;8.65;67.74;98096.50;4469325;32;35543;-72
2022/04/07 03:59:42;;;;;;;10.20;4.25;;;;;;;8.15;70.27;98091.94;4465582;32;34570;-72
2022/04/07 04:02:28;;;;;;;8.13;4.25;;;;;;;8.22;69.81;98090.25;4462878;32;34344;-72
2022/04/07 04:05:14;;;;;;;7.65;4.72;;;;;;;7.11;76.18;98082.38;4472005;32;34631;-72
2022/04/07 04:08:00;;;;;;;10.95;4.85;;;;;;;6.65;81.96;98083.94;4473230;32;35309;-72
2022/04/07 04:10:46;;;;;;;10.77;4.65;;;;;;;7.39;76.79;98077.31;4470920;32;34542;-72
2022/04/07 04:13:33;;;;;;;11.05;4.90;;;;;;;7.21;76.62;98084.75;4465362;32;34169;-72
2022/04/07 04:16:19;;;;;;;9.73;4.53;;;;;;;7.98;73.00;98088.19;4474152;32;35132;-72
2022/04/07 04:19:05;;;;;;;8.38;4.10;;;;;;;8.00;72.14;98075.03;4473182;32;35554;-72
2022/04/07 04:21:52;;;;;;;12.07;4.50;;;;;;;8.45;69.55;98087.22;4463823;32;34655;-72
2022/04/07 04:24:38;;;;;;;8.43;4.28;;;;;;;8.45;69.23;98082.56;4469348;32;34216;-72
2022/04/07 04:27:24;;;;;;;12.65;4.25;;;;;;;8.64;68.89;98084.00;4467936;32;35101;-72
2022/04/07 04:30:13;;;;;;;9.35;4.28;;;;;;;8.57;68.83;98084.56;4473669;32;34631;-72
2022/04/07 04:33:00;;;;;;;7.37;3.83;;;;;;;8.28;70.23;98083.47;4464325;32;34567;-72
2022/04/07 04:35:46;;;;;;;8.23;4.20;;;;;;;8.41;69.95;98080.84;4473410;32;34199;-72
2022/04/07 04:38:32;;;;;;;9.65;4.22;;;;;;;8.82;67.80;98081.88;4466308;32;34575;-72
2022/04/07 04:41:19;;;;;;;12.60;4.50;;;;;;;8.75;68.22;98075.03;4465998;32;35977;-72
2022/04/07 04:44:05;;;;;;;9.27;4.37;;;;;;;8.45;69.16;98066.19;4473350;32;34259;-72
2022/04/07 04:46:51;;;;;;;10.32;4.50;;;;;;;8.14;70.82;98076.69;4473737;32;33116;-73
2022/04/07 04:49:41;;;;;;;9.27;4.22;;;;;;;7.91;73.09;98071.53;4455540;32;34550;-72
2022/04/07 04:52:27;;;;;;;10.23;4.65;;;;;;;7.66;74.77;98079.56;4466977;32;36036;-72
2022/04/07 04:55:14;;;;;;;9.30;4.57;;;;;;;8.71;69.95;98085.06;4467164;32;36109;-73
2022/04/07 04:58:00;;;;;;;8.75;4.32;;;;;;;8.78;69.20;98087.22;4466607;32;33765;-72
2022/04/07 05:00:47;;;;;;;8.35;4.53;;;;;;;8.72;69.67;98081.19;4470142;32;35514;-73
2022/04/07 05:03:33;;;;;;;9.10;4.68;;;;;;;8.96;67.73;98085.91;4467044;32;34952;-73
2022/04/07 05:06:20;;;;;;;11.48;4.82;;;;;;;8.57;70.40;98092.75;4466603;32;34526;-73
2022/04/07 05:09:06;;;;;;;9.98;4.78;;;;;;;8.91;69.18;98083.41;4474021;32;35149;-72
2022/04/07 05:11:52;;;;;;;8.90;4.43;;;;;;;8.56;70.85;98082.94;4459158;32;35016;-76
2022/04/07 05:14:38;;;;;;;9.60;4.70;;;;;;;8.74;70.17;98084.38;4478314;32;34960;-76
2022/04/07 05:17:24;;;;;;;9.23;4.85;;;;;;;8.69;70.89;98072.87;4465461;32;34183;-75
2022/04/07 05:20:10;;;;;;;10.93;4.95;;;;;;;8.91;69.82;98075.22;4475790;32;33155;-75
2022/04/07 05:22:57;;;;;;;13.25;4.95;;;;;;;7.52;75.94;98087.19;4473455;32;34834;-75
2022/04/07 05:25:45;;;;;;;8.43;4.85;;;;;;;8.34;73.11;98092.28;4465760;32;35901;-75
2022/04/07 05:28:31;;;;;;;12.30;5.37;;;;;;;8.48;73.90;98092.81;4465843;32;34537;-76
2022/04/07 05:31:17;;;;;;;10.13;5.00;;;;;;;9.03;70.37;98092.75;4475977;32;34127;-75
2022/04/07 05:34:04;;;;;;;7.97;4.62;;;;;;;9.41;68.32;98096.00;4476982;32;34674;-79
2022/04/07 05:36:50;;;;;;;9.65;4.80;;;;;;;9.61;66.65;98102.50;4456844;32;34698;-78
2022/04/07 05:39:36;;;;;;;12.15;5.50;;;;;;;10.02;65.99;98110.81;4467879;32;34714;-79
2022/04/07 05:42:22;;;;;;;12.80;5.37;;;;;;;9.80;67.73;98112.88;4465871;32;34147;-79
2022/04/07 05:45:09;;;;;;;16.27;6.32;;;;;;;9.94;66.92;98117.19;4464912;32;34614;-75
2022/04/07 05:47:55;;;;;;;13.60;6.18;;;;;;;9.99;66.41;98125.16;4468669;32;34634;-75
2022/04/07 05:50:41;;;;;;;14.32;6.47;;;;;;;10.02;65.51;98132.69;4473648;32;36719;-75
2022/04/07 05:53:28;;;;;;;15.63;7.25;;;;;;;10.32;65.48;98136.75;4477782;32;34185;-75
2022/04/07 05:56:14;;;;;;;17.70;6.82;;;;;;;10.53;63.80;98131.13;4473612;32;34107;-75
2022/04/07 05:59:01;;;;;;;15.75;6.47;;;;;;;10.53;64.58;98133.87;4466732;32;34884;-75
2022/04/07 06:01:48;;;;;;;9.38;5.12;;;;;;;10.88;64.16;98136.00;4476095;32;35434;-74
2022/04/07 06:04:39;;;;;;;10.27;5.15;;;;;;;10.91;61.93;98137.25;4466066;32;33725;-74
2022/04/07 06:07:25;;;;;;;9.65;5.07;;;;;;;11.30;60.88;98137.50;4464551;32;34619;-74
2022/04/07 06:10:12;;;;;;;9.73;4.50;;;;;;;11.35;60.78;98145.47;4467667;32;34852;-77
2022/04/07 06:12:58;;;;;;;8.20;4.78;;;;;;;11.52;60.70;98136.88;4467809;32;35440;-77
2022/04/07 06:15:46;;;;;;;8.25;4.45;;;;;;;11.79;60.47;98137.97;4473596;32;34276;-78
2022/04/07 06:18:32;;;;;;;10.32;5.00;;;;;;;11.88;59.41;98135.84;4465842;32;35211;-78
2022/04/07 06:21:19;;;;;;;11.93;4.93;;;;;;;12.13;58.78;98139.19;4472543;32;33951;-76
2022/04/07 06:24:05;;;;;;;8.38;5.00;;;;;;;12.03;56.96;98144.41;4465882;32;34479;-77
2022/04/07 06:26:52;;;;;;;9.32;4.85;;;;;;;12.02;58.49;98151.88;4472206;32;34086;-76
2022/04/07 06:29:38;;;;;;;13.52;5.32;;;;;;;12.38;57.99;98155.44;4474675;32;34823;-78
2022/04/07 06:32:24;;;;;;;10.75;5.57;;;;;;;11.84;59.13;98156.91;4443935;32;35483;-77
2022/04/07 06:35:13;;;;;;;9.70;5.30;;;;;;;11.88;59.12;98159.75;4472548;32;34377;-78
2022/04/07 06:38:00;;;;;;;11.05;5.60;;;;;;;12.39;58.71;98170.75;4466566;32;34090;-78
2022/04/07 06:40:46;;;;;;;18.02;6.55;;;;;;;11.84;60.56;98178.03;4467882;32;34617;-78
2022/04/07 06:43:33;;;;;;;10.75;5.30;;;;;;;11.03;64.82;98184.56;4468000;32;34413;-78
2022/04/07 06:46:19;;;;;;;9.98;5.30;;;;;;;11.49;63.75;98178.75;4468969;32;34337;-77
2022/04/07 06:49:05;;;;;;;15.05;6.28;;;;;;;12.24;61.48;98166.06;4468967;32;33356;-77
2022/04/07 06:51:51;;;;;;;17.33;6.70;;;;;;;11.82;61.77;98183.09;4477689;32;34493;-76
2022/04/07 06:54:38;;;;;;;13.48;5.80;;;;;;;10.97;66.09;98183.25;4464188;32;36026;-75
2022/04/07 06:57:24;;;;;;;10.48;5.43;;;;;;;11.61;62.79;98184.16;4472523;32;33379;-76
2022/04/07 07:00:13;;;;;;;12.45;5.75;;;;;;;11.85;60.87;98180.47;4472357;32;34238;-77
2022/04/07 07:03:01;;;;;;;10.48;5.18;;;;;;;12.44;59.25;98172.44;4467056;32;34042;-78
2022/04/07 07:05:48;;;;;;;13.02;6.20;;;;;;;12.78;58.26;98170.78;4465164;32;34751;-77
2022/04/07 07:08:34;;;;;;;13.07;5.25;;;;;;;12.21;59.72;98175.03;4474467;32;34571;-79
2022/04/07 07:11:21;;;;;;;14.87;5.22;;;;;;;11.89;60.91;98181.34;4467105;32;35191;-80
2022/04/07 07:14:07;;;;;;;12.75;5.78;;;;;;;12.55;58.80;98179.75;4473055;32;34671;-78
2022/04/07 07:16:53;;;;;;;16.50;5.35;;;;;;;12.08;60.04;98177.09;4466168;32;35916;-80
2022/04/07 07:19:40;;;;;;;15.60;5.37;;;;;;;12.14;60.21;98190.19;4468561;32;34649;-80
2022/04/07 07:22:26;;;;;;;10.65;5.70;;;;;;;11.78;62.37;98180.28;4464846;32;34141;-79
2022/04/07 07:25:13;;;;;;;16.77;6.43;;;;;;;11.73;61.81;98182.50;4470562;32;34235;-78
2022/04/07 07:28:00;;;;;;;11.30;5.95;;;;;;;11.75;61.92;98180.97;4461915;32;35951;-78
2022/04/07 07:30:46;;;;;;;10.32;5.70;;;;;;;12.05;60.77;98175.84;4465427;32;35131;-80
2022/04/07 07:33:33;;;;;;;11.85;5.80;;;;;;;11.60;60.78;98188.03;4469840;32;34197;-80
2022/04/07 07:36:19;;;;;;;10.23;5.05;;;;;;;12.12;57.94;98178.78;4460285;32;34644;-79
2022/04/07 07:39:07;;;;;;;13.45;6.43;;;;;;;11.65;60.11;98182.31;4470827;32;36147;-81
2022/04/07 07:41:53;;;;;;;9.73;6.03;;;;;;;12.16;57.95;98184.34;4473145;32;34950;-80
2022/04/07 07:44:40;;;;;;;12.57;6.37;;;;;;;12.13;58.51;98182.31;4467314;32;33956;-81
2022/04/07 07:47:26;;;;;;;11.60;5.95;;;;;;;12.52;56.75;98187.87;4461307;32;34521;-81
2022/04/07 07:50:13;;;;;;;13.05;5.55;;;;;;;12.41;57.35;98178.59;4473353;32;35975;-79
2022/04/07 07:52:59;;;;;;;14.32;6.90;;;;;;;12.72;56.98;98184.03;4462166;32;34120;-79
2022/04/07 07:55:46;;;;;;;11.02;6.32;;;;;;;13.44;53.71;98180.75;4471597;32;34215;-79
2022/04/07 07:58:32;;;;;;;13.77;5.72;;;;;;;13.24;53.95;98193.69;4471154;32;34604;-79
2022/04/07 08:01:19;;;;;;;12.23;6.00;;;;;;;13.57;53.60;98192.34;4473188;32;34798;-79
2022/04/07 08:04:05;;;;;;;11.73;6.35;;;;;;;13.30;53.58;98185.97;4473367;32;34449;-82
2022/04/07 08:06:51;;;;;;;18.95;8.00;;;;;;;12.71;55.69;98195.37;4452556;32;34042;-82
2022/04/07 08:09:38;;;;;;;11.05;6.05;;;;;;;12.69;55.72;98194.91;4469397;32;34619;-82
2022/04/07 08:12:24;;;;;;;11.65;6.55;;;;;;;13.34;53.96;98192.34;4462935;32;33718;-81
2022/04/07 08:15:12;;;;;;;10.50;5.47;;;;;;;13.07;54.84;98198.88;4462334;32;35360;-81
2022/04/07 08:17:58;;;;;;;11.05;5.93;;;;;;;12.26;56.30;98194.75;4467206;32;34092;-80
2022/04/07 08:20:45;;;;;;;9.75;5.62;;;;;;;12.30;57.09;98201.16;4472648;32;34550;-80
2022/04/07 08:23:31;;;;;;;15.88;5.90;;;;;;;12.58;57.01;98201.00;4470658;32;34907;-81
2022/04/07 08:26:18;;;;;;;13.23;6.62;;;;;;;12.21;58.76;98197.00;4476204;32;34556;-81
2022/04/07 08:29:04;;;;;;;16.17;6.68;;;;;;;11.80;59.84;98201.87;4465482;32;33757;-80
2022/04/07 08:31:53;;;;;;;12.70;6.45;;;;;;;11.90;59.14;98198.62;4474004;32;34614;-81
2022/04/07 08:34:39;;;;;;;12.35;6.85;;;;;;;11.71;59.91;98202.84;4472715;32;36099;-78
2022/04/07 08:37:25;;;;;;;15.18;6.85;;;;;;;11.95;59.95;98203.84;4452835;32;35145;-77
2022/04/07 08:40:16;;;;;;;20.02;11.27;;;;;;;12.17;59.71;98196.91;4464742;32;33952;-80
2022/04/07 08:43:03;;;;;;;21.85;13.18;;;;;;;11.30;63.21;98208.78;4464837;32;34553;-83
2022/04/07 08:45:49;;;;;;;15.65;8.75;;;;;;;11.64;63.60;98197.19;4466271;32;34995;-82
2022/04/07 08:48:40;;;;;;;16.73;9.65;;;;;;;12.08;62.12;98199.84;4472888;32;34102;-82
2022/04/07 08:51:28;;;;;;;22.37;14.20;;;;;;;11.56;63.65;98200.09;4464996;32;34155;-81
2022/04/07 08:54:14;;;;;;;32.88;17.75;;;;;;;11.65;64.14;98197.97;4463891;32;34630;-82
2022/04/07 08:57:03;;;;;;;21.55;12.90;;;;;;;11.67;63.65;98195.69;4473920;32;35155;-81
2022/04/07 08:59:51;;;;;;;13.65;7.72;;;;;;;12.07;62.37;98191.97;4466855;32;35427;-81
2022/04/07 09:02:38;;;;;;;23.65;13.38;;;;;;;12.16;61.45;98189.84;4472151;32;34284;-81
2022/04/07 09:05:26;;;;;;;22.75;15.88;;;;;;;12.21;60.50;98189.56;4475519;32;34728;-81
2022/04/07 09:08:12;;;;;;;14.30;8.63;;;;;;;12.22;60.85;98187.63;4472967;31;36013;-81
2022/04/07 09:11:00;;;;;;;15.88;11.20;;;;;;;12.33;60.67;98183.97;4467780;32;35578;-81
2022/04/07 09:13:47;;;;;;;19.65;12.40;;;;;;;12.57;59.87;98182.91;4465775;32;34778;-81
2022/04/07 09:16:37;;;;;;;10.38;5.47;;;;;;;12.79;58.70;98180.63;4465608;32;34506;-81
2022/04/07 09:19:24;;;;;;;8.57;3.92;;;;;;;13.04;52.62;98179.19;4463880;32;34990;-81
2022/04/07 09:22:12;;;;;;;8.57;3.90;;;;;;;12.90;51.90;98175.34;4444536;32;35027;-81
2022/04/07 09:25:04;;;;;;;11.93;6.70;;;;;;;12.98;52.11;98168.84;4464100;32;34975;-81
2022/04/07 09:27:51;;;;;;;12.98;7.37;;;;;;;12.90;55.15;98173.38;4466049;32;34625;-80
2022/04/07 09:30:38;;;;;;;13.82;9.18;;;;;;;13.05;57.55;98169.75;4453108;32;33532;-82
2022/04/07 09:33:26;;;;;;;17.60;9.43;;;;;;;12.56;60.34;98169.53;4472784;32;34619;-84
2022/04/07 09:36:21;;;;;;;18.62;10.05;;;;;;;12.87;59.12;98168.62;4472150;32;34997;-83
2022/04/07 09:39:09;;;;;;;17.33;10.07;;;;;;;13.20;58.45;98165.31;4469454;32;33203;-83
2022/04/07 09:42:20;;;;;;;20.85;13.95;;;;;;;12.90;57.96;98167.91;4454436;32;34635;-83
2022/04/07 09:45:10;;;;;;;19.42;10.60;;;;;;;12.68;58.95;98165.84;4450417;32;34180;-80
2022/04/07 09:47:57;;;;;;;15.98;9.13;;;;;;;12.98;57.78;98168.84;4463092;32;34162;-79
2022/04/07 09:51:02;;;;;;;21.73;8.57;;;;;;;12.92;58.66;98160.09;4475063;32;34379;-80
2022/04/07 09:53:50;;;;;;;15.98;10.10;;;;;;;13.11;56.88;98150.22;4464239;32;35009;-80
2022/04/07 09:56:50;;;;;;;15.25;8.93;;;;;;;13.50;55.97;98149.00;4470031;32;34170;-81
2022/04/07 09:59:39;;;;;;;12.80;8.57;;;;;;;13.99;54.65;98141.16;4462802;32;34421;-83
2022/04/07 10:02:26;;;;;;;13.23;7.22;;;;;;;13.89;55.02;98142.59;4471797;32;35861;-82
2022/04/07 10:05:13;;;;;;;12.45;6.47;;;;;;;14.73;52.85;98149.69;4463023;32;35017;-82
2022/04/07 10:08:06;;;;;;;11.20;6.50;;;;;;;14.31;52.00;98147.91;4469276;32;35848;-82
2022/04/07 10:10:54;;;;;;;9.88;6.07;;;;;;;14.66;51.13;98144.09;4461364;32;33013;-83
2022/04/07 10:13:41;;;;;;;16.58;6.15;;;;;;;14.57;50.60;98143.56;4452080;32;34664;-83
2022/04/07 10:16:47;;;;;;;9.25;5.10;;;;;;;14.68;49.87;98140.94;4456857;32;35587;-82
2022/04/07 10:19:39;;;;;;;11.43;7.60;;;;;;;15.11;48.64;98139.47;4454172;32;34491;-86
2022/04/07 10:22:47;;;;;;;7.40;4.47;;;;;;;14.25;50.49;98135.63;4456147;32;35094;-85
2022/04/07 10:25:38;;;;;;;7.37;4.25;;;;;;;14.88;48.38;98128.59;4465411;32;34684;-80
2022/04/07 10:28:25;;;;;;;5.62;3.55;;;;;;;15.36;45.88;98119.63;4453400;32;36678;-84
2022/04/07 10:31:15;;;;;;;8.63;4.85;;;;;;;15.55;45.02;98116.66;4449895;32;35605;-83
2022/04/07 10:34:09;;;;;;;7.57;4.10;;;;;;;15.69;44.83;98111.28;4459368;32;34095;-83
2022/04/07 10:37:05;;;;;;;7.32;3.45;;;;;;;15.15;44.92;98096.19;4457828;32;34617;-83
2022/04/07 10:39:51;;;;;;;6.03;3.45;;;;;;;15.30;44.74;98105.41;4443421;32;34556;-82
2022/04/07 10:43:17;;;;;;;5.35;2.70;;;;;;;15.63;43.97;98099.00;4454683;32;34643;-83
2022/04/07 10:46:05;;;;;;;5.72;3.25;;;;;;;15.95;43.47;98096.50;4452118;32;34206;-82
2022/04/07 10:49:00;;;;;;;6.12;3.55;;;;;;;16.03;43.19;98100.09;4455325;32;35584;-83
2022/04/07 10:51:58;;;;;;;7.43;3.03;;;;;;;16.03;41.51;98091.03;4461294;32;36450;-83
2022/04/07 10:55:08;;;;;;;6.62;2.65;;;;;;;15.88;42.38;98084.59;4448253;32;34027;-82
2022/04/07 10:58:14;;;;;;;6.07;2.70;;;;;;;17.12;41.45;98086.38;4451744;32;34693;-82
2022/04/07 11:01:00;;;;;;;4.32;2.60;;;;;;;17.01;39.85;98085.56;4449331;32;34585;-81
2022/04/07 11:04:21;;;;;;;4.68;3.08;;;;;;;16.52;40.51;98081.41;4456941;32;35014;-81
2022/04/07 11:07:07;;;;;;;5.95;3.05;;;;;;;16.99;40.12;98069.38;4452821;32;35436;-81
2022/04/07 11:10:00;;;;;;;6.45;2.67;;;;;;;16.47;39.54;98074.28;4453646;32;34188;-82
2022/04/07 11:13:01;;;;;;;4.95;2.80;;;;;;;16.93;40.04;98075.66;4453734;32;34090;-82
2022/04/07 11:15:52;;;;;;;5.20;3.28;;;;;;;17.06;40.12;98072.13;4456504;32;35920;-83
2022/04/07 11:18:38;;;;;;;4.82;2.50;;;;;;;17.04;39.13;98068.97;4457501;32;34652;-82
2022/04/07 11:21:25;;;;;;;6.50;2.83;;;;;;;16.99;39.17;98074.91;4456189;32;34477;-82
2022/04/07 11:24:28;;;;;;;6.05;2.78;;;;;;;17.63;38.30;98065.06;4455560;32;35593;-82
2022/04/07 11:27:35;;;;;;;4.90;2.67;;;;;;;17.80;38.00;98067.06;4449990;32;34958;-82
2022/04/07 11:30:35;;;;;;;7.30;3.30;;;;;;;18.37;37.92;98066.94;4452527;32;34219;-82
2022/04/07 11:36:12;;;;;;;6.53;3.50;;;;;;;17.30;38.25;98078.09;4454470;32;34679;-82
2022/04/07 11:38:58;;;;;;;5.87;3.40;;;;;;;18.12;36.37;98067.00;4456561;32;34589;-82
2022/04/07 11:41:45;;;;;;;5.35;2.55;;;;;;;17.27;38.15;98059.50;4454323;32;34178;-82
2022/04/07 11:44:31;;;;;;;4.55;3.08;;;;;;;17.41;38.61;98064.25;4452186;32;34112;-82
2022/04/07 11:47:33;;;;;;;5.45;3.03;;;;;;;17.91;37.92;98062.28;4453982;32;34358;-82
2022/04/07 11:50:19;;;;;;;;;;;;;;;17.46;37.19;98056.34;4446863;32;35754;-83
2022/04/07 11:53:05;;;;;;;5.47;3.40;;;;;;;17.43;37.76;98062.69;4457594;32;34331;-82
2022/04/07 11:55:51;;;;;;;4.40;2.60;;;;;;;17.55;37.87;98053.19;4463253;32;32829;-82
2022/04/07 11:58:38;;;;;;;7.00;3.00;;;;;;;18.51;35.94;98055.00;4458231;32;34617;-84
2022/04/07 12:01:24;;;;;;;7.47;3.30;;;;;;;17.67;36.41;98052.00;4464117;32;34513;-82
2022/04/07 12:04:13;;;;;;;6.90;3.00;;;;;;;17.71;37.87;98048.03;4458481;32;34734;-82
2022/04/07 12:07:05;;;;;;;7.00;3.23;;;;;;;17.35;37.55;98046.47;4461911;32;33737;-82
2022/04/07 12:09:56;;;;;;;6.65;3.30;;;;;;;17.61;37.15;98043.28;4460122;32;34526;-82
2022/04/07 12:12:42;;;;;;;8.13;3.03;;;;;;;18.33;36.29;98032.91;4454899;32;35012;-83
2022/04/07 12:15:29;;;;;;;5.40;2.70;;;;;;;19.62;34.64;98023.78;4452737;32;34622;-82
2022/04/07 12:18:25;;;;;;;5.87;2.85;;;;;;;19.18;35.55;98025.34;4459812;32;34525;-83
2022/04/07 12:21:11;;;;;;;5.62;3.00;;;;;;;17.94;35.33;98019.16;4450068;32;35521;-83
2022/04/07 12:24:13;;;;;;;7.15;3.05;;;;;;;18.68;35.76;98022.03;4464418;32;35025;-83
2022/04/07 12:26:59;;;;;;;6.45;2.80;;;;;;;18.14;36.80;98020.28;4458658;32;34083;-82
2022/04/07 12:29:47;;;;;;;7.95;3.20;;;;;;;19.01;35.76;98026.22;4460807;32;35089;-83
2022/04/07 12:32:44;;;;;;;12.73;4.70;;;;;;;20.11;34.05;98012.59;4464377;32;34461;-82
2022/04/07 12:35:46;;;;;;;9.63;4.78;;;;;;;20.84;35.13;98019.66;4456248;32;34474;-83
2022/04/07 12:38:33;;;;;;;8.02;4.57;;;;;;;21.41;33.91;98010.47;4464382;32;34582;-82
2022/04/07 12:41:20;;;;;;;8.32;3.83;;;;;;;21.09;34.98;98003.37;4465827;32;34688;-83
2022/04/07 12:44:30;;;;;;;12.73;4.90;;;;;;;20.71;34.98;98016.63;4470714;32;35539;-83
2022/04/07 12:47:17;;;;;;;10.10;4.50;;;;;;;20.87;34.77;98010.47;4469304;32;35872;-83
2022/04/07 12:50:04;;;;;;;7.18;4.30;;;;;;;20.24;36.47;98010.06;4474706;32;34532;-83
2022/04/07 12:52:50;;;;;;;8.50;4.68;;;;;;;21.32;33.89;98005.41;4473433;32;34884;-83
2022/04/07 12:55:38;;;;;;;8.80;4.30;;;;;;;21.09;33.60;98000.59;4466215;32;34745;-83
2022/04/07 12:58:28;;;;;;;11.23;5.22;;;;;;;20.63;33.65;97993.72;4464473;32;35915;-82
2022/04/07 13:01:24;;;;;;;7.43;4.28;;;;;;;21.02;34.75;97997.91;4474537;32;34156;-82
2022/04/07 13:04:11;;;;;;;8.45;4.60;;;;;;;21.14;34.03;97992.97;4455561;32;35132;-82
2022/04/07 13:06:57;;;;;;;11.70;4.62;;;;;;;21.21;33.42;97990.06;4473306;32;34648;-82
2022/04/07 13:09:44;;;;;;;6.43;4.10;;;;;;;20.61;34.67;97989.75;4452054;32;34875;-83
2022/04/07 13:12:32;;;;;;;10.35;4.55;;;;;;;20.91;35.28;97991.72;4466311;32;34553;-83